Back to Top

Language: 

My Weather Underground Personal Weather Station Historical Data with Graphs...

Delerius Weather Station Historical Data
Daily Summary for January 29, 2017 Units:  Metric    English   Both
« Previous Day
Next Day »
Daily Weekly Monthly Yearly Custom
  High: Low: Average:
Temperature: 5.9 °C 0.6 °C 3.4 °C
Dew Point: 4.1 °C -0.4 °C 2.3 °C
Humidity: 98 % 81 % 93 %
Wind Speed: 11.3 km/h 0 km/h 3.4 km/h
Wind Gust: -1607.7 km/h - -
Wind:- - SW
Pressure: 1011.1 hPa 1007 hPa -
Precipitation: 0.51 mm    
Historical Graphs
 
 
Tabular Data for January 29, 2017
Time Temperature Dew Point Pressure Wind Wind Speed Wind Gust Humidity Rainfall Rate (Hourly) solar Conditions
00:01 2.8 °C 1.5 °C 1009.4 hPa SSW 4.8 km/h -1607.7 km/h 91 % 0 mm 0 W/m2
00:06 2.8 °C 1.5 °C 1009.4 hPa SSW 4.8 km/h -1607.7 km/h 91 % 0 mm 0 W/m2
00:11 2.8 °C 1.5 °C 1009.4 hPa SSW 4.8 km/h -1607.7 km/h 91 % 0 mm 0 W/m2
00:16 2.8 °C 1.5 °C 1009.4 hPa SSW 4.8 km/h -1607.7 km/h 91 % 0 mm 0 W/m2
00:21 2.8 °C 1.5 °C 1009.4 hPa SSW 4.8 km/h -1607.7 km/h 91 % 0 mm 0 W/m2
00:26 2.9 °C 1.6 °C 1009.4 hPa SSW 3.2 km/h -1607.7 km/h 91 % 0 mm 0 W/m2
00:31 2.9 °C 1.6 °C 1009.4 hPa SSW 3.2 km/h -1607.7 km/h 91 % 0 mm 0 W/m2
00:36 2.9 °C 1.6 °C 1009.4 hPa SSW 3.2 km/h -1607.7 km/h 91 % 0 mm 0 W/m2
00:41 2.9 °C 1.6 °C 1009.4 hPa SSW 1.6 km/h -1607.7 km/h 91 % 0 mm 0 W/m2
00:46 2.9 °C 1.6 °C 1009.4 hPa SSW 1.6 km/h -1607.7 km/h 91 % 0 mm 0 W/m2
00:51 2.9 °C 1.6 °C 1009.4 hPa SSW 1.6 km/h -1607.7 km/h 91 % 0 mm 0 W/m2
00:56 2.7 °C 1.3 °C 1009 hPa West 1.6 km/h -1607.7 km/h 91 % 0 mm 0 W/m2
01:01 2.7 °C 1.3 °C 1009 hPa West 1.6 km/h -1607.7 km/h 91 % 0 mm 0 W/m2
01:06 2.7 °C 1.3 °C 1009 hPa West 1.6 km/h -1607.7 km/h 91 % 0 mm 0 W/m2
01:11 2.6 °C 1.4 °C 1009 hPa SSW 4.8 km/h -1607.7 km/h 92 % 0 mm 0 W/m2
01:16 2.6 °C 1.4 °C 1009 hPa SSW 4.8 km/h -1607.7 km/h 92 % 0 mm 0 W/m2
01:21 2.6 °C 1.4 °C 1009 hPa SSW 4.8 km/h -1607.7 km/h 92 % 0 mm 0 W/m2
01:26 2.6 °C 1.4 °C 1009 hPa SW 1.6 km/h -1607.7 km/h 92 % 0 mm 0 W/m2
01:31 2.6 °C 1.4 °C 1009 hPa SW 1.6 km/h -1607.7 km/h 92 % 0 mm 0 W/m2
01:36 2.6 °C 1.4 °C 1009 hPa SW 1.6 km/h -1607.7 km/h 92 % 0 mm 0 W/m2
01:41 2.4 °C 1.3 °C 1009.4 hPa Calm   -1607.7 km/h 92 % 0 mm 0 W/m2
01:46 2.4 °C 1.3 °C 1009.4 hPa Calm   -1607.7 km/h 92 % 0 mm 0 W/m2
01:51 2.4 °C 1.3 °C 1009.4 hPa Calm   -1607.7 km/h 92 % 0 mm 0 W/m2
01:56 2.2 °C 1 °C 1009.4 hPa Calm   -1607.7 km/h 92 % 0 mm 0 W/m2
02:01 2.2 °C 1 °C 1009.4 hPa Calm   -1607.7 km/h 92 % 0 mm 0 W/m2
02:06 2.2 °C 1 °C 1009.4 hPa Calm   -1607.7 km/h 92 % 0 mm 0 W/m2
02:11 1.8 °C 0.8 °C 1009.4 hPa Calm   -1607.7 km/h 93 % 0 mm 0 W/m2
02:16 1.8 °C 0.8 °C 1009.4 hPa Calm   -1607.7 km/h 93 % 0 mm 0 W/m2
02:21 1.8 °C 0.8 °C 1009.4 hPa Calm   -1607.7 km/h 93 % 0 mm 0 W/m2
02:26 1.7 °C 0.7 °C 1009.4 hPa Calm   -1607.7 km/h 93 % 0 mm 0 W/m2
02:31 1.7 °C 0.7 °C 1009.4 hPa Calm   -1607.7 km/h 93 % 0 mm 0 W/m2
02:36 1.7 °C 0.7 °C 1009.4 hPa Calm   -1607.7 km/h 93 % 0 mm 0 W/m2
02:41 1.4 °C 0.4 °C 1009.4 hPa Calm   -1607.7 km/h 93 % 0 mm 0 W/m2
02:46 1.4 °C 0.4 °C 1009.4 hPa Calm   -1607.7 km/h 93 % 0 mm 0 W/m2
02:51 1.4 °C 0.4 °C 1009.4 hPa Calm   -1607.7 km/h 93 % 0 mm 0 W/m2
02:56 1.3 °C 0.4 °C 1009.4 hPa WNW 1.6 km/h -1607.7 km/h 94 % 0 mm 0 W/m2
03:01 1.3 °C 0.4 °C 1009.4 hPa WNW 1.6 km/h -1607.7 km/h 94 % 0 mm 0 W/m2
03:06 1.3 °C 0.4 °C 1009.4 hPa WNW 1.6 km/h -1607.7 km/h 94 % 0 mm 0 W/m2
03:11 1.3 °C 0.5 °C 1009.4 hPa WNW 1.6 km/h -1607.7 km/h 94 % 0 mm 0 W/m2
03:16 1.3 °C 0.5 °C 1009.4 hPa WNW 1.6 km/h -1607.7 km/h 94 % 0 mm 0 W/m2
03:21 1.3 °C 0.5 °C 1009.4 hPa WNW 1.6 km/h -1607.7 km/h 94 % 0 mm 0 W/m2
03:26 1.3 °C 0.6 °C 1009.4 hPa WNW 3.2 km/h -1607.7 km/h 95 % 0 mm 0 W/m2
03:31 1.3 °C 0.6 °C 1009.4 hPa WNW 3.2 km/h -1607.7 km/h 95 % 0 mm 0 W/m2
03:36 1.3 °C 0.6 °C 1009.4 hPa WNW 3.2 km/h -1607.7 km/h 95 % 0 mm 0 W/m2
03:41 1.3 °C 0.6 °C 1009.7 hPa WNW 3.2 km/h -1607.7 km/h 95 % 0 mm 0 W/m2
03:46 1.3 °C 0.6 °C 1009.7 hPa WNW 3.2 km/h -1607.7 km/h 95 % 0 mm 0 W/m2
03:51 1.3 °C 0.6 °C 1009.7 hPa WNW 3.2 km/h -1607.7 km/h 95 % 0 mm 0 W/m2
03:56 1.4 °C 0.6 °C 1009.7 hPa West 1.6 km/h -1607.7 km/h 94 % 0 mm 0 W/m2
04:01 1.4 °C 0.6 °C 1009.7 hPa West 1.6 km/h -1607.7 km/h 94 % 0 mm 0 W/m2
04:06 1.4 °C 0.6 °C 1009.7 hPa West 1.6 km/h -1607.7 km/h 94 % 0 mm 0 W/m2
04:11 1.1 °C 0.3 °C 1009.7 hPa Calm   -1607.7 km/h 94 % 0 mm 0 W/m2
04:16 1.1 °C 0.3 °C 1009.7 hPa Calm   -1607.7 km/h 94 % 0 mm 0 W/m2
04:21 1.1 °C 0.3 °C 1009.7 hPa Calm   -1607.7 km/h 94 % 0 mm 0 W/m2
04:26 0.9 °C 0.1 °C 1009.7 hPa Calm   -1607.7 km/h 94 % 0 mm 0 W/m2
04:31 0.9 °C 0.1 °C 1009.7 hPa Calm   -1607.7 km/h 94 % 0 mm 0 W/m2
04:36 0.9 °C 0.1 °C 1009.7 hPa Calm   -1607.7 km/h 94 % 0 mm 0 W/m2
04:41 0.7 °C -0.1 °C 1009.7 hPa West 3.2 km/h -1607.7 km/h 95 % 0 mm 0 W/m2
04:46 0.7 °C -0.1 °C 1009.7 hPa West 3.2 km/h -1607.7 km/h 95 % 0 mm 0 W/m2
04:51 0.7 °C -0.1 °C 1009.7 hPa West 3.2 km/h -1607.7 km/h 95 % 0 mm 0 W/m2
04:56 1.1 °C 0.5 °C 1009.7 hPa WSW 8 km/h -1607.7 km/h 96 % 0 mm 0 W/m2
05:01 1.1 °C 0.5 °C 1009.7 hPa WSW 8 km/h -1607.7 km/h 96 % 0 mm 0 W/m2
05:06 1.1 °C 0.5 °C 1009.7 hPa WSW 8 km/h -1607.7 km/h 96 % 0 mm 0 W/m2
05:11 1.8 °C 1.1 °C 1010 hPa West 4.8 km/h -1607.7 km/h 95 % 0 mm 0 W/m2
05:16 1.8 °C 1.1 °C 1010 hPa West 4.8 km/h -1607.7 km/h 95 % 0 mm 0 W/m2
05:21 1.8 °C 1.1 °C 1010 hPa West 4.8 km/h -1607.7 km/h 95 % 0 mm 0 W/m2
05:26 1.9 °C 1 °C 1010 hPa West 3.2 km/h -1607.7 km/h 94 % 0 mm 0 W/m2
05:31 1.9 °C 1 °C 1010 hPa West 3.2 km/h -1607.7 km/h 94 % 0 mm 0 W/m2
05:36 1.9 °C 1 °C 1010 hPa West 3.2 km/h -1607.7 km/h 94 % 0 mm 0 W/m2
05:41 1.7 °C 0.8 °C 1010 hPa West 4.8 km/h -1607.7 km/h 94 % 0 mm 0 W/m2
05:46 1.7 °C 0.8 °C 1010 hPa West 4.8 km/h -1607.7 km/h 94 % 0 mm 0 W/m2
05:51 1.7 °C 0.8 °C 1010 hPa West 4.8 km/h -1607.7 km/h 94 % 0 mm 0 W/m2
05:56 1.6 °C 0.7 °C 1010 hPa WSW 8 km/h -1607.7 km/h 94 % 0 mm 0 W/m2
06:01 1.6 °C 0.7 °C 1010 hPa WSW 8 km/h -1607.7 km/h 94 % 0 mm 0 W/m2
06:06 1.6 °C 0.7 °C 1010 hPa WSW 8 km/h -1607.7 km/h 94 % 0 mm 0 W/m2
06:11 1.9 °C 1.1 °C 1010 hPa WSW 9.7 km/h -1607.7 km/h 94 % 0 mm 0 W/m2
06:16 1.9 °C 1.1 °C 1010 hPa WSW 9.7 km/h -1607.7 km/h 94 % 0 mm 0 W/m2
06:21 1.9 °C 1.1 °C 1010 hPa WSW 9.7 km/h -1607.7 km/h 94 % 0 mm 0 W/m2
06:26 2.2 °C 1.2 °C 1010 hPa West 9.7 km/h -1607.7 km/h 93 % 0 mm 0 W/m2
06:31 2.2 °C 1.2 °C 1010 hPa West 9.7 km/h -1607.7 km/h 93 % 0 mm 0 W/m2
06:36 2.2 °C 1.2 °C 1010 hPa West 9.7 km/h -1607.7 km/h 93 % 0 mm 0 W/m2
06:41 2 °C 0.8 °C 1010.4 hPa West 1.6 km/h -1607.7 km/h 92 % 0 mm 0 W/m2
06:46 2 °C 0.8 °C 1010.4 hPa West 1.6 km/h -1607.7 km/h 92 % 0 mm 0 W/m2
06:51 2 °C 0.8 °C 1010.4 hPa West 1.6 km/h -1607.7 km/h 92 % 0 mm 0 W/m2
06:56 1.6 °C 0.4 °C 1010.4 hPa WSW 1.6 km/h -1607.7 km/h 92 % 0 mm 0 W/m2
07:01 1.6 °C 0.4 °C 1010.4 hPa WSW 1.6 km/h -1607.7 km/h 92 % 0 mm 0 W/m2
07:06 1.6 °C 0.4 °C 1010.4 hPa WSW 1.6 km/h -1607.7 km/h 92 % 0 mm 0 W/m2
07:11 1.3 °C 0.3 °C 1010.4 hPa NW 1.6 km/h -1607.7 km/h 93 % 0 mm 0 W/m2
07:16 1.3 °C 0.3 °C 1010.4 hPa NW 1.6 km/h -1607.7 km/h 93 % 0 mm 0 W/m2
07:21 1.3 °C 0.3 °C 1010.4 hPa NW 1.6 km/h -1607.7 km/h 93 % 0 mm 0 W/m2
07:26 0.9 °C -0.1 °C 1010.4 hPa ESE 1.6 km/h -1607.7 km/h 93 % 0 mm 0 W/m2
07:31 0.9 °C -0.1 °C 1010.4 hPa ESE 1.6 km/h -1607.7 km/h 93 % 0 mm 0 W/m2
07:36 0.9 °C -0.1 °C 1010.4 hPa ESE 1.6 km/h -1607.7 km/h 93 % 0 mm 0 W/m2
07:41 0.6 °C -0.4 °C 1010.7 hPa WSW 1.6 km/h -1607.7 km/h 93 % 0 mm 0 W/m2
07:46 0.6 °C -0.4 °C 1010.7 hPa WSW 1.6 km/h -1607.7 km/h 93 % 0 mm 0 W/m2
07:51 0.6 °C -0.4 °C 1010.7 hPa WSW 1.6 km/h -1607.7 km/h 93 % 0 mm 0 W/m2
07:56 0.6 °C -0.3 °C 1010.7 hPa WSW 3.2 km/h -1607.7 km/h 94 % 0 mm 4 W/m2
08:01 0.6 °C -0.3 °C 1010.7 hPa WSW 3.2 km/h -1607.7 km/h 94 % 0 mm 4 W/m2
08:06 0.6 °C -0.3 °C 1010.7 hPa WSW 3.2 km/h -1607.7 km/h 94 % 0 mm 4 W/m2
08:11 0.7 °C 0 °C 1010.7 hPa Calm   -1607.7 km/h 95 % 0 mm 10 W/m2
08:16 0.7 °C 0 °C 1010.7 hPa Calm   -1607.7 km/h 95 % 0 mm 10 W/m2
08:21 0.7 °C 0 °C 1010.7 hPa Calm   -1607.7 km/h 95 % 0 mm 10 W/m2
08:26 0.8 °C -0.1 °C 1010.7 hPa Calm   -1607.7 km/h 94 % 0 mm 14 W/m2
08:31 0.8 °C -0.1 °C 1010.7 hPa Calm   -1607.7 km/h 94 % 0 mm 14 W/m2
08:36 0.8 °C -0.1 °C 1010.7 hPa Calm   -1607.7 km/h 94 % 0 mm 14 W/m2
08:41 0.8 °C 0.1 °C 1010.7 hPa Calm   -1607.7 km/h 95 % 0 mm 18 W/m2
08:46 0.8 °C 0.1 °C 1010.7 hPa Calm   -1607.7 km/h 95 % 0 mm 18 W/m2
08:51 0.8 °C 0.1 °C 1010.7 hPa Calm   -1607.7 km/h 95 % 0 mm 18 W/m2
08:56 0.9 °C 0.2 °C 1010.7 hPa Calm   -1607.7 km/h 95 % 0 mm 21 W/m2
09:01 0.9 °C 0.2 °C 1010.7 hPa Calm   -1607.7 km/h 95 % 0 mm 21 W/m2
09:06 0.9 °C 0.2 °C 1010.7 hPa Calm   -1607.7 km/h 95 % 0 mm 21 W/m2
09:11 1.2 °C 0.4 °C 1010.7 hPa Calm   -1607.7 km/h 95 % 0 mm 24 W/m2
09:16 1.2 °C 0.4 °C 1010.7 hPa Calm   -1607.7 km/h 95 % 0 mm 24 W/m2
09:21 1.2 °C 0.4 °C 1010.7 hPa Calm   -1607.7 km/h 95 % 0 mm 24 W/m2
09:26 1.4 °C 0.9 °C 1010.7 hPa SE 1.6 km/h -1607.7 km/h 96 % 0 mm 60 W/m2
09:31 1.4 °C 0.9 °C 1010.7 hPa SE 1.6 km/h -1607.7 km/h 96 % 0 mm 60 W/m2
09:36 1.4 °C 0.9 °C 1010.7 hPa SE 1.6 km/h -1607.7 km/h 96 % 0 mm 60 W/m2
09:41 2.2 °C 1.6 °C 1010.7 hPa South 1.6 km/h -1607.7 km/h 96 % 0 mm 196 W/m2
09:46 2.2 °C 1.6 °C 1010.7 hPa South 1.6 km/h -1607.7 km/h 96 % 0 mm 196 W/m2
09:51 2.2 °C 1.6 °C 1010.7 hPa South 1.6 km/h -1607.7 km/h 96 % 0 mm 196 W/m2
09:56 3.3 °C 2.1 °C 1010.7 hPa South 3.2 km/h -1607.7 km/h 92 % 0 mm 222 W/m2
10:01 3.3 °C 2.1 °C 1010.7 hPa South 3.2 km/h -1607.7 km/h 92 % 0 mm 222 W/m2
10:06 3.3 °C 2.1 °C 1010.7 hPa South 3.2 km/h -1607.7 km/h 92 % 0 mm 222 W/m2
10:11 3.9 °C 2.2 °C 1011.1 hPa SE 4.8 km/h -1607.7 km/h 89 % 0 mm 244 W/m2
10:16 3.9 °C 2.2 °C 1011.1 hPa SE 4.8 km/h -1607.7 km/h 89 % 0 mm 244 W/m2
10:21 3.9 °C 2.2 °C 1011.1 hPa SE 4.8 km/h -1607.7 km/h 89 % 0 mm 244 W/m2
10:26 4.5 °C 2.5 °C 1011.1 hPa South 1.6 km/h -1607.7 km/h 87 % 0 mm 265 W/m2
10:31 4.5 °C 2.5 °C 1011.1 hPa South 1.6 km/h -1607.7 km/h 87 % 0 mm 265 W/m2
10:36 4.5 °C 2.5 °C 1011.1 hPa South 1.6 km/h -1607.7 km/h 87 % 0 mm 265 W/m2
10:41 4.9 °C 2.6 °C 1011.1 hPa South 3.2 km/h -1607.7 km/h 85 % 0 mm 286 W/m2
10:46 4.9 °C 2.6 °C 1011.1 hPa South 3.2 km/h -1607.7 km/h 85 % 0 mm 286 W/m2
10:51 4.9 °C 2.6 °C 1011.1 hPa South 3.2 km/h -1607.7 km/h 85 % 0 mm 286 W/m2
10:56 5.3 °C 2.7 °C 1010.7 hPa SSE 6.4 km/h -1607.7 km/h 83 % 0 mm 303 W/m2
11:01 5.3 °C 2.7 °C 1010.7 hPa SSE 6.4 km/h -1607.7 km/h 83 % 0 mm 303 W/m2
11:06 5.3 °C 2.7 °C 1010.7 hPa SSE 6.4 km/h -1607.7 km/h 83 % 0 mm 303 W/m2
11:11 5.5 °C 2.8 °C 1010.7 hPa SSW 11.3 km/h -1607.7 km/h 83 % 0 mm 292 W/m2
11:16 5.5 °C 2.8 °C 1010.7 hPa SSW 11.3 km/h -1607.7 km/h 83 % 0 mm 292 W/m2
11:21 5.5 °C 2.8 °C 1010.7 hPa SSW 11.3 km/h -1607.7 km/h 83 % 0 mm 292 W/m2
11:26 5.6 °C 2.9 °C 1010.7 hPa SW 6.4 km/h -1607.7 km/h 83 % 0 mm 265 W/m2
11:31 5.6 °C 2.9 °C 1010.7 hPa SW 6.4 km/h -1607.7 km/h 83 % 0 mm 265 W/m2
11:36 5.6 °C 2.9 °C 1010.7 hPa SW 6.4 km/h -1607.7 km/h 83 % 0 mm 265 W/m2
11:41 5.7 °C 2.9 °C 1010.7 hPa SW 11.3 km/h -1607.7 km/h 82 % 0 mm 193 W/m2
11:46 5.7 °C 2.9 °C 1010.7 hPa SW 11.3 km/h -1607.7 km/h 82 % 0 mm 193 W/m2
11:51 5.7 °C 2.9 °C 1010.7 hPa SW 11.3 km/h -1607.7 km/h 82 % 0 mm 193 W/m2
11:56 5.5 °C 2.8 °C 1010.7 hPa SSW 11.3 km/h -1607.7 km/h 83 % 0 mm 199 W/m2
12:01 5.5 °C 2.8 °C 1010.7 hPa SSW 11.3 km/h -1607.7 km/h 83 % 0 mm 199 W/m2
12:06 5.5 °C 2.8 °C 1010.7 hPa SSW 11.3 km/h -1607.7 km/h 83 % 0 mm 199 W/m2
12:11 5.8 °C 2.8 °C 1010.4 hPa SSW 8 km/h -1607.7 km/h 81 % 0 mm 243 W/m2
12:16 5.8 °C 2.8 °C 1010.4 hPa SSW 8 km/h -1607.7 km/h 81 % 0 mm 243 W/m2
12:21 5.8 °C 2.8 °C 1010.4 hPa SSW 8 km/h -1607.7 km/h 81 % 0 mm 243 W/m2
12:26 5.9 °C 3.1 °C 1010.4 hPa SSW 9.7 km/h -1607.7 km/h 82 % 0 mm 176 W/m2
12:31 5.9 °C 3.1 °C 1010.4 hPa SSW 9.7 km/h -1607.7 km/h 82 % 0 mm 176 W/m2
12:36 5.9 °C 3.1 °C 1010.4 hPa SSW 9.7 km/h -1607.7 km/h 82 % 0 mm 176 W/m2
12:41 5.7 °C 2.9 °C 1010 hPa SSW 8 km/h -1607.7 km/h 82 % 0 mm 164 W/m2
12:46 5.7 °C 2.9 °C 1010 hPa SSW 8 km/h -1607.7 km/h 82 % 0 mm 164 W/m2
12:51 5.7 °C 2.9 °C 1010 hPa SSW 8 km/h -1607.7 km/h 82 % 0 mm 164 W/m2
12:56 5.8 °C 3.1 °C 1009.7 hPa South 4.8 km/h -1607.7 km/h 83 % 0 mm 175 W/m2
13:01 5.8 °C 3.1 °C 1009.7 hPa South 4.8 km/h -1607.7 km/h 83 % 0 mm 175 W/m2
13:06 5.8 °C 3.1 °C 1009.7 hPa South 4.8 km/h -1607.7 km/h 83 % 0 mm 175 W/m2
13:11 5.7 °C 3.2 °C 1009.4 hPa SE 4.8 km/h -1607.7 km/h 84 % 0 mm 103 W/m2
13:16 5.7 °C 3.2 °C 1009.4 hPa SE 4.8 km/h -1607.7 km/h 84 % 0 mm 103 W/m2
13:21 5.7 °C 3.2 °C 1009.4 hPa SE 4.8 km/h -1607.7 km/h 84 % 0 mm 103 W/m2
13:26 5.4 °C 3.1 °C 1009.4 hPa SSE 8 km/h -1607.7 km/h 85 % 0 mm 107 W/m2
13:31 5.4 °C 3.1 °C 1009.4 hPa SSE 8 km/h -1607.7 km/h 85 % 0 mm 107 W/m2
13:36 5.4 °C 3.1 °C 1009.4 hPa SSE 8 km/h -1607.7 km/h 85 % 0 mm 107 W/m2
13:41 5.1 °C 3.1 °C 1009.4 hPa SE 8 km/h -1607.7 km/h 87 % 0 mm 114 W/m2
13:46 5.1 °C 3.1 °C 1009.4 hPa SE 8 km/h -1607.7 km/h 87 % 0 mm 114 W/m2
13:51 5.1 °C 3.1 °C 1009.4 hPa SE 8 km/h -1607.7 km/h 87 % 0 mm 114 W/m2
13:56 4.7 °C 2.8 °C 1009 hPa SE 4.8 km/h -1607.7 km/h 88 % 0 mm 118 W/m2
14:01 4.7 °C 2.8 °C 1009 hPa SE 4.8 km/h -1607.7 km/h 88 % 0 mm 118 W/m2
14:06 4.7 °C 2.8 °C 1009 hPa SE 4.8 km/h -1607.7 km/h 88 % 0 mm 118 W/m2
14:11 4.4 °C 2.7 °C 1009 hPa SSE 6.4 km/h -1607.7 km/h 89 % 0 mm 81 W/m2
14:16 4.4 °C 2.7 °C 1009 hPa SSE 6.4 km/h -1607.7 km/h 89 % 0 mm 81 W/m2
14:21 4.4 °C 2.7 °C 1009 hPa SSE 6.4 km/h -1607.7 km/h 89 % 0 mm 81 W/m2
14:26 4.3 °C 2.8 °C 1009 hPa SSE 6.4 km/h -1607.7 km/h 90 % 0 mm 98 W/m2
14:31 4.3 °C 2.8 °C 1009 hPa SSE 6.4 km/h -1607.7 km/h 90 % 0 mm 98 W/m2
14:36 4.3 °C 2.8 °C 1009 hPa SSE 6.4 km/h -1607.7 km/h 90 % 0 mm 98 W/m2
14:41 4.2 °C 2.9 °C 1009 hPa SE 6.4 km/h -1607.7 km/h 91 % 0 mm 122 W/m2
14:46 4.2 °C 2.9 °C 1009 hPa SE 6.4 km/h -1607.7 km/h 91 % 0 mm 122 W/m2
14:51 4.2 °C 2.9 °C 1009 hPa SE 6.4 km/h -1607.7 km/h 91 % 0 mm 122 W/m2
14:56 4.2 °C 2.9 °C 1009 hPa SE 9.7 km/h -1607.7 km/h 91 % 0 mm 110 W/m2
15:01 4.2 °C 2.9 °C 1009 hPa SE 9.7 km/h -1607.7 km/h 91 % 0 mm 110 W/m2
15:06 4.2 °C 2.9 °C 1009 hPa SE 9.7 km/h -1607.7 km/h 91 % 0 mm 110 W/m2
15:11 4.2 °C 2.9 °C 1009 hPa SE 8 km/h -1607.7 km/h 91 % 0 mm 64 W/m2
15:16 4.2 °C 2.9 °C 1009 hPa SE 8 km/h -1607.7 km/h 91 % 0 mm 64 W/m2
15:21 4.2 °C 2.9 °C 1009 hPa SE 8 km/h -1607.7 km/h 91 % 0 mm 64 W/m2
15:26 4.3 °C 3.2 °C 1008.7 hPa SE 9.7 km/h -1607.7 km/h 92 % 0 mm 32 W/m2
15:31 4.3 °C 3.2 °C 1008.7 hPa SE 9.7 km/h -1607.7 km/h 92 % 0 mm 32 W/m2
15:36 4.3 °C 3.2 °C 1008.7 hPa SE 9.7 km/h -1607.7 km/h 92 % 0 mm 32 W/m2
15:41 4.4 °C 3.3 °C 1009 hPa SE 11.3 km/h -1607.7 km/h 93 % 0 mm 19 W/m2
15:46 4.4 °C 3.3 °C 1009 hPa SE 11.3 km/h -1607.7 km/h 93 % 0 mm 19 W/m2
15:51 4.4 °C 3.3 °C 1009 hPa SE 11.3 km/h -1607.7 km/h 93 % 0 mm 19 W/m2
15:56 4.4 °C 3.4 °C 1008.7 hPa SE 8 km/h -1607.7 km/h 93 % 0 mm 10 W/m2
16:01 4.4 °C 3.4 °C 1008.7 hPa SE 8 km/h -1607.7 km/h 93 % 0 mm 10 W/m2
16:06 4.4 °C 3.4 °C 1008.7 hPa SE 8 km/h -1607.7 km/h 93 % 0 mm 10 W/m2
16:11 4.4 °C 3.5 °C 1008.7 hPa SE 8 km/h -1607.7 km/h 94 % 0 mm 7 W/m2
16:16 4.4 °C 3.5 °C 1008.7 hPa SE 8 km/h -1607.7 km/h 94 % 0 mm 7 W/m2
16:21 4.4 °C 3.5 °C 1008.7 hPa SE 8 km/h -1607.7 km/h 94 % 0 mm 7 W/m2
16:26 4.4 °C 3.5 °C 1008.7 hPa SE 6.4 km/h -1607.7 km/h 94 % 0 mm 4 W/m2
16:31 4.4 °C 3.5 °C 1008.7 hPa SE 6.4 km/h -1607.7 km/h 94 % 0 mm 4 W/m2
16:36 4.4 °C 3.5 °C 1008.7 hPa SE 6.4 km/h -1607.7 km/h 94 % 0 mm 4 W/m2
16:41 4.3 °C 3.4 °C 1008.7 hPa SSE 1.6 km/h -1607.7 km/h 94 % 0 mm 0 W/m2
16:46 4.3 °C 3.4 °C 1008.7 hPa SSE 1.6 km/h -1607.7 km/h 94 % 0 mm 0 W/m2
16:51 4.3 °C 3.4 °C 1008.7 hPa SSE 1.6 km/h -1607.7 km/h 94 % 0 mm 0 W/m2
16:56 4.3 °C 3.6 °C 1008.7 hPa SE 1.6 km/h -1607.7 km/h 95 % 0 mm 0 W/m2
17:01 4.3 °C 3.6 °C 1008.7 hPa SE 1.6 km/h -1607.7 km/h 95 % 0 mm 0 W/m2
17:06 4.3 °C 3.6 °C 1008.7 hPa SE 1.6 km/h -1607.7 km/h 95 % 0 mm 0 W/m2
17:11 4.3 °C 3.6 °C 1008.7 hPa Calm   -1607.7 km/h 95 % 0 mm 0 W/m2
17:16 4.3 °C 3.6 °C 1008.7 hPa Calm   -1607.7 km/h 95 % 0 mm 0 W/m2
17:21 4.3 °C 3.6 °C 1008.7 hPa Calm   -1607.7 km/h 95 % 0 mm 0 W/m2
17:26 4.3 °C 3.6 °C 1008.7 hPa Calm   -1607.7 km/h 95 % 0 mm 0 W/m2
17:31 4.3 °C 3.6 °C 1008.7 hPa Calm   -1607.7 km/h 95 % 0 mm 0 W/m2
17:36 4.3 °C 3.6 °C 1008.7 hPa Calm   -1607.7 km/h 95 % 0 mm 0 W/m2
17:41 4.3 °C 3.6 °C 1008.4 hPa Calm   -1607.7 km/h 95 % 0.25 mm 0 W/m2
17:46 4.3 °C 3.6 °C 1008.4 hPa Calm   -1607.7 km/h 95 % 0.25 mm 0 W/m2
17:51 4.3 °C 3.6 °C 1008.4 hPa Calm   -1607.7 km/h 95 % 0.25 mm 0 W/m2
17:56 4.3 °C 3.6 °C 1008.4 hPa Calm   -1607.7 km/h 95 % 0.25 mm 0 W/m2
18:01 4.3 °C 3.6 °C 1008.4 hPa Calm   -1607.7 km/h 95 % 0.25 mm 0 W/m2
18:06 4.3 °C 3.6 °C 1008.4 hPa Calm   -1607.7 km/h 95 % 0.25 mm 0 W/m2
18:11 4.3 °C 3.7 °C 1008.4 hPa Calm   -1607.7 km/h 96 % 0.25 mm 0 W/m2
18:16 4.3 °C 3.7 °C 1008.4 hPa Calm   -1607.7 km/h 96 % 0.25 mm 0 W/m2
18:21 4.3 °C 3.7 °C 1008.4 hPa Calm   -1607.7 km/h 96 % 0.25 mm 0 W/m2
18:26 4.3 °C 3.7 °C 1008.4 hPa Calm   -1607.7 km/h 96 % 0.25 mm 0 W/m2
18:31 4.3 °C 3.7 °C 1008.4 hPa Calm   -1607.7 km/h 96 % 0.25 mm 0 W/m2
18:36 4.3 °C 3.7 °C 1008.4 hPa Calm   -1607.7 km/h 96 % 0.25 mm 0 W/m2
18:41 4.3 °C 3.7 °C 1008 hPa Calm   -1607.7 km/h 96 % 0.25 mm 0 W/m2
18:46 4.3 °C 3.7 °C 1008 hPa Calm   -1607.7 km/h 96 % 0.25 mm 0 W/m2
18:51 4.3 °C 3.7 °C 1008 hPa Calm   -1607.7 km/h 96 % 0.25 mm 0 W/m2
18:56 4.3 °C 3.7 °C 1007.7 hPa Calm   -1607.7 km/h 96 % 0.25 mm 0 W/m2
19:01 4.3 °C 3.7 °C 1007.7 hPa Calm   -1607.7 km/h 96 % 0.25 mm 0 W/m2
19:06 4.3 °C 3.7 °C 1007.7 hPa Calm   -1607.7 km/h 96 % 0.25 mm 0 W/m2
19:11 4.3 °C 3.7 °C 1007.7 hPa Calm   -1607.7 km/h 96 % 0.25 mm 0 W/m2
19:16 4.3 °C 3.7 °C 1007.7 hPa Calm   -1607.7 km/h 96 % 0.25 mm 0 W/m2
19:21 4.3 °C 3.7 °C 1007.7 hPa Calm   -1607.7 km/h 96 % 0.25 mm 0 W/m2
19:26 4.3 °C 3.7 °C 1007.7 hPa Calm   -1607.7 km/h 96 % 0.25 mm 0 W/m2
19:31 4.3 °C 3.7 °C 1007.7 hPa Calm   -1607.7 km/h 96 % 0.25 mm 0 W/m2
19:36 4.3 °C 3.7 °C 1007.7 hPa Calm   -1607.7 km/h 96 % 0.25 mm 0 W/m2
19:41 4.3 °C 3.7 °C 1007.7 hPa Calm   -1607.7 km/h 96 % 0 mm 0 W/m2
19:46 4.3 °C 3.7 °C 1007.7 hPa Calm   -1607.7 km/h 96 % 0 mm 0 W/m2
19:51 4.3 °C 3.7 °C 1007.7 hPa Calm   -1607.7 km/h 96 % 0 mm 0 W/m2
19:56 4.3 °C 3.8 °C 1007.7 hPa Calm   -1607.7 km/h 96 % 0 mm 0 W/m2
20:01 4.3 °C 3.8 °C 1007.7 hPa Calm   -1607.7 km/h 96 % 0 mm 0 W/m2
20:06 4.3 °C 3.8 °C 1007.7 hPa Calm   -1607.7 km/h 96 % 0 mm 0 W/m2
20:11 4.4 °C 3.9 °C 1007.3 hPa Calm   -1607.7 km/h 97 % 0 mm 0 W/m2
20:16 4.4 °C 3.9 °C 1007.3 hPa Calm   -1607.7 km/h 97 % 0 mm 0 W/m2
20:21 4.4 °C 3.9 °C 1007.3 hPa Calm   -1607.7 km/h 97 % 0 mm 0 W/m2
20:26 4.4 °C 3.9 °C 1007.3 hPa Calm   -1607.7 km/h 97 % 0 mm 0 W/m2
20:31 4.4 °C 3.9 °C 1007.3 hPa Calm   -1607.7 km/h 97 % 0 mm 0 W/m2
20:36 4.4 °C 3.9 °C 1007.3 hPa Calm   -1607.7 km/h 97 % 0 mm 0 W/m2
20:41 4.4 °C 3.9 °C 1007.3 hPa Calm   -1607.7 km/h 97 % 0 mm 0 W/m2
20:46 4.4 °C 3.9 °C 1007.3 hPa Calm   -1607.7 km/h 97 % 0 mm 0 W/m2
20:51 4.4 °C 3.9 °C 1007.3 hPa Calm   -1607.7 km/h 97 % 0 mm 0 W/m2
20:56 4.4 °C 3.9 °C 1007.3 hPa Calm   -1607.7 km/h 97 % 0 mm 0 W/m2
21:01 4.4 °C 3.9 °C 1007.3 hPa Calm   -1607.7 km/h 97 % 0 mm 0 W/m2
21:06 4.4 °C 3.9 °C 1007.3 hPa Calm   -1607.7 km/h 97 % 0 mm 0 W/m2
21:11 4.4 °C 3.9 °C 1007.3 hPa Calm   -1607.7 km/h 97 % 0 mm 0 W/m2
21:16 4.4 °C 3.9 °C 1007.3 hPa Calm   -1607.7 km/h 97 % 0 mm 0 W/m2
21:21 4.4 °C 3.9 °C 1007.3 hPa Calm   -1607.7 km/h 97 % 0 mm 0 W/m2
21:26 4.4 °C 4 °C 1007.3 hPa Calm   -1607.7 km/h 97 % 0 mm 0 W/m2
21:31 4.4 °C 4 °C 1007.3 hPa Calm   -1607.7 km/h 97 % 0 mm 0 W/m2
21:36 4.4 °C 4 °C 1007.3 hPa Calm   -1607.7 km/h 97 % 0 mm 0 W/m2
21:41 4.4 °C 3.9 °C 1007 hPa Calm   -1607.7 km/h 97 % 0 mm 0 W/m2
21:46 4.4 °C 3.9 °C 1007 hPa Calm   -1607.7 km/h 97 % 0 mm 0 W/m2
21:51 4.4 °C 3.9 °C 1007 hPa Calm   -1607.7 km/h 97 % 0 mm 0 W/m2
21:56 4.3 °C 3.9 °C 1007 hPa Calm   -1607.7 km/h 97 % 0 mm 0 W/m2
22:01 4.3 °C 3.9 °C 1007 hPa Calm   -1607.7 km/h 97 % 0 mm 0 W/m2
22:06 4.3 °C 3.9 °C 1007 hPa Calm   -1607.7 km/h 97 % 0 mm 0 W/m2
22:11 4.3 °C 3.9 °C 1007 hPa Calm   -1607.7 km/h 97 % 0 mm 0 W/m2
22:16 4.3 °C 3.9 °C 1007 hPa Calm   -1607.7 km/h 97 % 0 mm 0 W/m2
22:21 4.3 °C 3.9 °C 1007 hPa Calm   -1607.7 km/h 97 % 0 mm 0 W/m2
22:26 4.4 °C 3.9 °C 1007 hPa NNW 1.6 km/h -1607.7 km/h 97 % 0 mm 0 W/m2
22:31 4.4 °C 3.9 °C 1007 hPa NNW 1.6 km/h -1607.7 km/h 97 % 0 mm 0 W/m2
22:36 4.4 °C 3.9 °C 1007 hPa NNW 1.6 km/h -1607.7 km/h 97 % 0 mm 0 W/m2
22:41 4.3 °C 3.9 °C 1007.3 hPa NNW 4.8 km/h -1607.7 km/h 97 % 0 mm 0 W/m2
22:46 4.3 °C 3.9 °C 1007.3 hPa NNW 4.8 km/h -1607.7 km/h 97 % 0 mm 0 W/m2
22:51 4.3 °C 3.9 °C 1007.3 hPa NNW 4.8 km/h -1607.7 km/h 97 % 0 mm 0 W/m2
22:56 4.3 °C 3.9 °C 1007.7 hPa NW 4.8 km/h -1607.7 km/h 97 % 0 mm 0 W/m2
23:01 4.3 °C 3.9 °C 1007.7 hPa NW 4.8 km/h -1607.7 km/h 97 % 0 mm 0 W/m2
23:06 4.3 °C 3.9 °C 1007.7 hPa NW 4.8 km/h -1607.7 km/h 97 % 0 mm 0 W/m2
23:11 4.3 °C 3.9 °C 1007.7 hPa NNW 4.8 km/h -1607.7 km/h 97 % 0 mm 0 W/m2
23:16 4.3 °C 3.9 °C 1007.7 hPa NNW 4.8 km/h -1607.7 km/h 97 % 0 mm 0 W/m2
23:21 4.3 °C 3.9 °C 1007.7 hPa NNW 4.8 km/h -1607.7 km/h 97 % 0 mm 0 W/m2
23:26 4.3 °C 3.9 °C 1007.7 hPa NW 3.2 km/h -1607.7 km/h 97 % 0.25 mm 0 W/m2
23:31 4.3 °C 3.9 °C 1007.7 hPa NW 3.2 km/h -1607.7 km/h 97 % 0.25 mm 0 W/m2
23:36 4.3 °C 3.9 °C 1007.7 hPa NW 3.2 km/h -1607.7 km/h 97 % 0.25 mm 0 W/m2
23:41 4.4 °C 4.1 °C 1007.7 hPa NNW 3.2 km/h -1607.7 km/h 98 % 0.25 mm 0 W/m2
23:46 4.4 °C 4.1 °C 1007.7 hPa NNW 3.2 km/h -1607.7 km/h 98 % 0.25 mm 0 W/m2
23:51 4.4 °C 4.1 °C 1007.7 hPa NNW 3.2 km/h -1607.7 km/h 98 % 0.25 mm 0 W/m2
23:56 4.4 °C 3.9 °C 1007.7 hPa NNW 3.2 km/h -1607.7 km/h 97 % 0.25 mm 0 W/m2
Delerius-Weather
Compliments of Weather Underground - 2.25 mb

Data updates at regular intervals.